createdAt,value
2024-02-26T00:27:18.399Z,4.20
2024-02-26T00:56:26.538Z,4.40
2024-02-26T01:25:30.023Z,4.60
2024-02-26T01:54:39.537Z,4.80
2024-02-26T02:23:42.523Z,5.00
2024-02-26T02:57:40.406Z,5.20
2024-02-26T03:26:47.063Z,5.30
2024-02-26T03:55:55.620Z,5.40
2024-02-26T04:24:59.253Z,5.30
2024-02-26T04:54:08.496Z,5.00
2024-02-26T05:23:21.460Z,4.90
2024-02-26T05:57:14.038Z,5.00
2024-02-26T06:26:23.559Z,5.20
2024-02-26T06:55:29.688Z,5.30
2024-02-26T07:24:36.523Z,5.60
2024-02-26T07:53:42.596Z,5.80
2024-02-26T08:27:40.567Z,6.20
2024-02-26T08:56:46.601Z,6.60
2024-02-26T09:25:53.565Z,7.10
2024-02-26T09:54:59.568Z,7.40
2024-02-26T10:24:05.602Z,7.30
2024-02-26T10:53:13.635Z,7.40
2024-02-26T11:27:10.561Z,7.40
2024-02-26T11:56:16.555Z,7.60
2024-02-26T12:25:22.635Z,7.50
2024-02-26T12:54:27.246Z,7.60
2024-02-26T13:23:35.540Z,7.70
2024-02-26T13:57:31.492Z,7.50
2024-02-26T14:26:39.695Z,7.50
2024-02-26T14:55:46.601Z,7.60
2024-02-26T15:24:50.041Z,7.60
2024-02-26T15:53:59.711Z,7.50
2024-02-26T16:23:06.575Z,7.30
2024-02-26T16:57:03.607Z,7.20
2024-02-26T17:26:10.630Z,7.00
2024-02-26T17:55:16.522Z,7.10
2024-02-26T18:24:22.579Z,6.90
2024-02-26T18:53:29.465Z,6.90
2024-02-26T19:27:26.594Z,6.80
2024-02-26T19:56:33.547Z,6.80
2024-02-26T20:25:39.444Z,6.70
2024-02-26T20:54:43.161Z,6.40
2024-02-26T21:23:49.931Z,6.10
2024-02-26T21:57:47.607Z,6.00
2024-02-26T22:26:54.365Z,5.80
2024-02-26T22:56:03.706Z,5.50
2024-02-26T23:25:14.588Z,5.60
2024-02-26T23:54:17.662Z,5.60
